createdAt,value
2022-08-03T00:00:30.711Z,99254.44
2022-08-03T00:02:57.637Z,99261.75
2022-08-03T00:05:24.537Z,99260.91
2022-08-03T00:07:51.450Z,99263.63
2022-08-03T00:10:20.067Z,99263.34
2022-08-03T00:12:46.842Z,99270.16
2022-08-03T00:15:16.463Z,99262.50
2022-08-03T00:17:52.351Z,99265.84
2022-08-03T00:20:23.685Z,99260.97
2022-08-03T00:22:50.751Z,99258.28
2022-08-03T00:25:17.922Z,99266.00
2022-08-03T00:27:44.690Z,99269.31
2022-08-03T00:30:11.697Z,99259.53
2022-08-03T00:32:42.875Z,99263.97
2022-08-03T00:35:24.134Z,99264.56
2022-08-03T00:37:59.357Z,99260.19
2022-08-03T00:40:26.373Z,99259.16
2022-08-03T00:43:03.141Z,99251.75
2022-08-03T00:45:36.349Z,99256.41
2022-08-03T00:48:04.413Z,99256.97
2022-08-03T00:50:32.788Z,99263.53
2022-08-03T00:52:59.712Z,99258.88
2022-08-03T00:55:26.638Z,99255.63
2022-08-03T00:57:53.817Z,99258.41
2022-08-03T01:00:22.852Z,99254.34
2022-08-03T01:02:50.021Z,99253.00
2022-08-03T01:05:22.219Z,99255.50
2022-08-03T01:07:56.769Z,99255.50
2022-08-03T01:10:25.947Z,99250.63
2022-08-03T01:12:56.192Z,99251.69
2022-08-03T01:15:23.004Z,99253.63
2022-08-03T01:17:52.280Z,99253.09
2022-08-03T01:20:19.202Z,99249.56
2022-08-03T01:22:50.212Z,99249.81
2022-08-03T01:25:23.175Z,99255.06
2022-08-03T01:28:03.231Z,99254.53
2022-08-03T01:30:30.717Z,99244.94
2022-08-03T01:33:01.986Z,99250.41
2022-08-03T01:35:32.341Z,99246.59
2022-08-03T01:38:06.413Z,99251.75
2022-08-03T01:40:34.038Z,99249.31
2022-08-03T01:43:01.246Z,99257.78
2022-08-03T01:45:28.453Z,99251.22
2022-08-03T01:48:01.176Z,99242.22
2022-08-03T01:50:28.400Z,99253.94
2022-08-03T01:52:55.341Z,99257.50
2022-08-03T01:55:22.882Z,99255.59
2022-08-03T01:58:05.282Z,99253.41
2022-08-03T02:00:33.236Z,99259.66
2022-08-03T02:03:00.316Z,99255.00
2022-08-03T02:05:27.217Z,99261.00
2022-08-03T02:07:54.184Z,99275.47
2022-08-03T02:10:30.992Z,99263.97
2022-08-03T02:13:03.687Z,99262.63
2022-08-03T02:15:30.551Z,99265.84
2022-08-03T02:17:57.758Z,99259.78
2022-08-03T02:20:25.564Z,99264.69
2022-08-03T02:22:52.389Z,99269.06
2022-08-03T02:25:19.453Z,99267.38
2022-08-03T02:27:57.211Z,99271.47
2022-08-03T02:30:26.294Z,99265.41
2022-08-03T02:32:55.150Z,99273.31
2022-08-03T02:35:23.529Z,99273.56
2022-08-03T02:37:52.339Z,99279.81
2022-08-03T02:40:19.651Z,99274.63
2022-08-03T02:42:48.117Z,99286.91
2022-08-03T02:45:15.098Z,99277.91
2022-08-03T02:47:53.378Z,99280.91
2022-08-03T02:50:21.663Z,99278.38
2022-08-03T02:52:49.324Z,99283.78
2022-08-03T02:55:16.185Z,99282.97
2022-08-03T02:57:43.097Z,99288.16
2022-08-03T03:00:10.222Z,99275.81
2022-08-03T03:02:37.174Z,99284.22
2022-08-03T03:05:56.116Z,99287.41
2022-08-03T03:07:51.892Z,99282.19
2022-08-03T03:10:20.585Z,99284.09
2022-08-03T03:12:55.151Z,99283.56
2022-08-03T03:15:25.161Z,99275.91
2022-08-03T03:17:53.322Z,99283.22
2022-08-03T03:20:29.788Z,99286.44
2022-08-03T03:23:01.137Z,99289.41
2022-08-03T03:25:31.522Z,99291.88
2022-08-03T03:27:58.966Z,99296.16
2022-08-03T03:30:26.394Z,99299.88
2022-08-03T03:32:53.595Z,99299.22
2022-08-03T03:35:20.460Z,99300.78
2022-08-03T03:37:47.418Z,99299.63
2022-08-03T03:40:14.562Z,99308.91
2022-08-03T03:42:41.432Z,99306.34
2022-08-03T03:45:08.612Z,99307.56
2022-08-03T03:47:35.806Z,99308.41
2022-08-03T03:50:05.986Z,99308.38
2022-08-03T03:52:33.382Z,99310.44
2022-08-03T03:55:01.353Z,99308.66
2022-08-03T03:57:30.687Z,99309.34
2022-08-03T03:59:57.922Z,99309.38
2022-08-03T04:02:24.814Z,99313.88
2022-08-03T04:05:10.267Z,99311.25
2022-08-03T04:08:03.584Z,99313.63
2022-08-03T04:10:49.036Z,99313.16
2022-08-03T04:13:15.880Z,99325.63
2022-08-03T04:15:42.685Z,99318.63
2022-08-03T04:18:10.410Z,99326.56
2022-08-03T04:20:37.933Z,99322.19
2022-08-03T04:23:04.824Z,99324.34
2022-08-03T04:25:40.835Z,99329.88
2022-08-03T04:28:29.892Z,99328.44
2022-08-03T04:30:54.649Z,99327.84
2022-08-03T04:33:21.960Z,99326.19
2022-08-03T04:35:58.450Z,99321.91
2022-08-03T04:38:30.537Z,99324.56
2022-08-03T04:40:57.392Z,99326.91
2022-08-03T04:43:24.408Z,99316.44
2022-08-03T04:45:51.531Z,99319.78
2022-08-03T04:48:18.751Z,99320.69
2022-08-03T04:50:45.683Z,99321.25
2022-08-03T04:53:12.651Z,99320.22
2022-08-03T04:55:39.711Z,99320.22
2022-08-03T04:58:06.859Z,99327.88
2022-08-03T05:00:33.920Z,99320.09
2022-08-03T05:03:01.007Z,99316.88
2022-08-03T05:05:37.862Z,99323.69
2022-08-03T05:08:14.862Z,99309.19
2022-08-03T05:10:41.862Z,99323.22
2022-08-03T05:13:12.165Z,99324.38
2022-08-03T05:15:43.274Z,99318.88
2022-08-03T05:18:13.853Z,99319.91
2022-08-03T05:20:41.322Z,99320.78
2022-08-03T05:23:09.528Z,99327.09
2022-08-03T05:25:39.565Z,99330.44
2022-08-03T05:28:06.662Z,99333.34
2022-08-03T05:33:14.276Z,99323.16
2022-08-03T05:35:57.475Z,99332.41
2022-08-03T05:38:34.580Z,99334.91
2022-08-03T05:41:21.961Z,99334.31
2022-08-03T05:43:51.017Z,99330.38
2022-08-03T05:46:18.220Z,99322.47
2022-08-03T05:48:48.253Z,99336.13
2022-08-03T05:51:17.656Z,99335.81
2022-08-03T05:53:45.434Z,99332.25
2022-08-03T05:56:16.393Z,99326.41
2022-08-03T05:58:50.501Z,99331.13
2022-08-03T06:01:20.404Z,99326.78
2022-08-03T06:03:47.974Z,99334.06
2022-08-03T06:06:15.374Z,99328.25
2022-08-03T06:08:43.586Z,99330.19
2022-08-03T06:11:10.581Z,99327.75
2022-08-03T06:13:37.552Z,99329.66
2022-08-03T06:16:04.682Z,99328.16
2022-08-03T06:18:32.102Z,99320.34
2022-08-03T06:20:58.937Z,99328.75
2022-08-03T06:23:54.498Z,99330.31
2022-08-03T06:26:23.559Z,99330.28
2022-08-03T06:28:54.314Z,99329.78
2022-08-03T06:31:24.096Z,99333.56
2022-08-03T06:34:33.640Z,99335.78
2022-08-03T06:36:38.305Z,99328.41
2022-08-03T06:39:05.196Z,99332.47
2022-08-03T06:41:38.122Z,99338.00
2022-08-03T06:44:12.452Z,99338.63
2022-08-03T06:46:42.522Z,99340.41
2022-08-03T06:52:05.871Z,99344.75
2022-08-03T06:54:34.288Z,99339.53
2022-08-03T06:57:01.450Z,99340.75
2022-08-03T07:00:07.339Z,99336.66
2022-08-03T07:02:19.166Z,99331.13
2022-08-03T07:04:47.526Z,99337.00
2022-08-03T07:07:14.396Z,99336.03
2022-08-03T07:09:41.723Z,99337.06
2022-08-03T07:12:11.379Z,99346.53
2022-08-03T07:14:40.141Z,99346.19
2022-08-03T07:17:11.556Z,99342.13
2022-08-03T07:19:38.859Z,99347.91
2022-08-03T07:22:06.509Z,99344.09
2022-08-03T07:24:33.322Z,99343.63
2022-08-03T07:27:00.232Z,99348.94
2022-08-03T07:29:27.116Z,99346.56
2022-08-03T07:31:54.044Z,99351.97
2022-08-03T07:34:20.915Z,99352.38
2022-08-03T07:36:47.856Z,99351.44
2022-08-03T07:39:17.850Z,99352.09
2022-08-03T07:41:45.670Z,99354.88
2022-08-03T07:44:12.698Z,99353.44
2022-08-03T07:46:39.558Z,99353.22
2022-08-03T07:49:06.483Z,99352.97
2022-08-03T07:51:33.467Z,99356.00
2022-08-03T07:54:01.113Z,99361.56
2022-08-03T07:56:28.374Z,99364.31
2022-08-03T07:58:55.517Z,99367.41
2022-08-03T08:01:22.545Z,99365.16
2022-08-03T08:03:53.717Z,99363.59
2022-08-03T08:06:21.223Z,99372.28
2022-08-03T08:08:48.197Z,99365.53
2022-08-03T08:11:15.093Z,99364.63
2022-08-03T08:13:42.211Z,99366.84
2022-08-03T08:16:09.140Z,99373.25
2022-08-03T08:18:36.776Z,99366.09
2022-08-03T08:21:03.843Z,99368.38
2022-08-03T08:23:42.076Z,99368.44
2022-08-03T08:26:16.200Z,99373.59
2022-08-03T08:28:47.530Z,99374.44
2022-08-03T08:31:19.546Z,99372.00
2022-08-03T08:34:03.635Z,99368.38
2022-08-03T08:36:34.863Z,99371.81
2022-08-03T08:39:02.426Z,99369.31
2022-08-03T08:41:34.904Z,99376.78
2022-08-03T08:44:04.685Z,99379.13
2022-08-03T08:46:33.547Z,99375.72
2022-08-03T08:49:05.245Z,99367.19
2022-08-03T08:51:59.634Z,99368.69
2022-08-03T08:54:21.618Z,99365.91
2022-08-03T08:56:49.513Z,99372.41
2022-08-03T08:59:47.871Z,99371.41
2022-08-03T09:02:17.012Z,99366.22
2022-08-03T09:04:50.420Z,99381.09
2022-08-03T09:07:29.257Z,99382.13
2022-08-03T09:10:12.291Z,99374.47
2022-08-03T09:12:48.252Z,99386.94
2022-08-03T09:15:28.733Z,99381.41
2022-08-03T09:17:56.685Z,99379.66
2022-08-03T09:20:24.150Z,99379.91
2022-08-03T09:22:57.312Z,99380.81
2022-08-03T09:25:38.019Z,99373.88
2022-08-03T09:28:05.040Z,99383.31
2022-08-03T09:30:34.951Z,99383.22
2022-08-03T09:33:02.772Z,99385.72
2022-08-03T09:35:52.977Z,99391.84
2022-08-03T09:38:24.498Z,99380.75
2022-08-03T09:40:53.789Z,99376.59
2022-08-03T09:43:26.003Z,99376.94
2022-08-03T09:45:53.185Z,99383.88
2022-08-03T09:48:24.376Z,99375.06
2022-08-03T09:51:13.517Z,99377.41
2022-08-03T09:53:50.522Z,99381.31
2022-08-03T09:56:37.587Z,99375.94
2022-08-03T09:59:04.499Z,99377.66
2022-08-03T10:01:35.237Z,99377.75
2022-08-03T10:04:04.285Z,99373.03
2022-08-03T10:06:32.223Z,99370.66
2022-08-03T10:09:10.942Z,99376.22
2022-08-03T10:11:41.806Z,99383.78
2022-08-03T10:14:10.381Z,99373.31
2022-08-03T10:16:42.821Z,99383.41
2022-08-03T10:19:10.704Z,99371.78
2022-08-03T10:21:39.660Z,99384.53
2022-08-03T10:24:10.433Z,99378.59
2022-08-03T10:29:25.128Z,99383.81
2022-08-03T10:31:57.271Z,99373.38
2022-08-03T10:34:29.917Z,99372.81
2022-08-03T10:36:57.577Z,99379.94
2022-08-03T10:39:24.614Z,99370.91
2022-08-03T10:41:51.641Z,99372.38
2022-08-03T10:44:20.666Z,99384.69
2022-08-03T10:46:48.300Z,99385.31
2022-08-03T10:49:33.924Z,99382.78
2022-08-03T10:52:11.182Z,99386.06
2022-08-03T10:55:07.503Z,99392.63
2022-08-03T10:57:49.931Z,99387.94
2022-08-03T11:00:19.564Z,99393.06
2022-08-03T11:05:49.295Z,99391.72
2022-08-03T11:11:31.150Z,99394.47
2022-08-03T11:13:58.264Z,99399.16
2022-08-03T11:16:25.200Z,99393.63
2022-08-03T11:19:05.888Z,99390.38
2022-08-03T11:21:51.784Z,99397.03
2022-08-03T11:24:36.841Z,99396.19
2022-08-03T11:27:16.283Z,99387.81
2022-08-03T11:30:06.140Z,99391.19
2022-08-03T11:32:59.893Z,99383.34
2022-08-03T11:35:26.984Z,99390.31
2022-08-03T11:38:03.415Z,99393.28
2022-08-03T11:40:38.775Z,99390.47
2022-08-03T11:43:10.009Z,99390.41
2022-08-03T11:45:37.164Z,99382.94
2022-08-03T11:48:15.061Z,99382.97
2022-08-03T11:50:45.416Z,99379.78
2022-08-03T11:53:21.058Z,99385.34
2022-08-03T11:55:54.124Z,99391.63
2022-08-03T11:59:00.956Z,99387.16
2022-08-03T12:01:12.622Z,99396.38
2022-08-03T12:03:39.578Z,99385.19
2022-08-03T12:06:09.708Z,99380.97
2022-08-03T12:08:39.509Z,99385.81
2022-08-03T12:11:08.260Z,99388.63
2022-08-03T12:14:45.802Z,99383.84
2022-08-03T12:16:33.343Z,99375.81
2022-08-03T12:19:01.735Z,99382.47
2022-08-03T12:21:28.934Z,99380.53
2022-08-03T12:24:03.225Z,99373.03
2022-08-03T12:26:30.816Z,99376.25
2022-08-03T12:28:58.396Z,99380.06
2022-08-03T12:34:14.139Z,99367.84
2022-08-03T12:36:53.258Z,99369.44
2022-08-03T12:39:23.758Z,99367.38
2022-08-03T12:41:53.006Z,99371.31
2022-08-03T12:44:29.365Z,99372.09
2022-08-03T12:49:48.782Z,99382.94
2022-08-03T12:52:26.738Z,99383.25
2022-08-03T12:54:59.353Z,99375.56
2022-08-03T12:57:26.326Z,99376.09
2022-08-03T12:59:56.059Z,99375.41
2022-08-03T13:02:24.406Z,99372.59
2022-08-03T13:04:52.408Z,99378.69
2022-08-03T13:07:20.650Z,99377.19
2022-08-03T13:09:49.004Z,99372.78
2022-08-03T13:12:17.259Z,99377.22
2022-08-03T13:14:45.096Z,99380.31
2022-08-03T13:17:12.183Z,99374.38
2022-08-03T13:19:39.217Z,99384.47
2022-08-03T13:22:12.596Z,99377.88
2022-08-03T13:24:39.666Z,99372.38
2022-08-03T13:27:58.845Z,99370.59
2022-08-03T13:29:54.892Z,99374.66
2022-08-03T13:32:22.423Z,99374.19
2022-08-03T13:34:49.449Z,99373.88
2022-08-03T13:37:25.029Z,99367.41
2022-08-03T13:39:58.745Z,99369.19
2022-08-03T13:42:35.412Z,99375.69
2022-08-03T13:45:02.750Z,99373.44
2022-08-03T13:47:31.070Z,99366.59
2022-08-03T13:50:01.629Z,99373.03
2022-08-03T13:52:32.825Z,99364.56
2022-08-03T13:55:00.286Z,99364.63
2022-08-03T13:58:05.098Z,99363.44
2022-08-03T14:00:27.077Z,99370.97
2022-08-03T14:03:01.823Z,99369.81
2022-08-03T14:05:32.084Z,99366.63
2022-08-03T14:08:04.856Z,99369.41
2022-08-03T14:10:33.201Z,99372.19
2022-08-03T14:13:04.785Z,99365.84
2022-08-03T14:15:31.840Z,99377.38
2022-08-03T14:18:06.089Z,99373.03
2022-08-03T14:20:37.828Z,99367.19
2022-08-03T14:23:06.961Z,99372.97
2022-08-03T14:25:43.678Z,99369.81
2022-08-03T14:28:21.412Z,99367.44
2022-08-03T14:30:48.768Z,99368.22
2022-08-03T14:33:16.105Z,99365.69
2022-08-03T14:38:24.310Z,99375.31
2022-08-03T14:40:51.528Z,99366.47
2022-08-03T14:43:18.631Z,99361.75
2022-08-03T14:45:45.569Z,99369.38
2022-08-03T14:50:33.566Z,99364.81
2022-08-03T14:50:59.705Z,99363.00
2022-08-03T14:53:26.667Z,99367.63
2022-08-03T14:55:53.735Z,99369.91
2022-08-03T14:58:22.071Z,99366.97
2022-08-03T15:00:50.291Z,99372.13
2022-08-03T15:03:20.470Z,99368.94
2022-08-03T15:05:48.670Z,99361.50
2022-08-03T15:08:15.870Z,99377.03
2022-08-03T15:10:44.285Z,99366.75
2022-08-03T15:16:06.105Z,99361.84
2022-08-03T15:18:33.684Z,99372.16
2022-08-03T15:21:06.842Z,99374.38
2022-08-03T15:23:43.599Z,99365.53
2022-08-03T15:26:32.767Z,99372.31
2022-08-03T15:28:59.775Z,99354.34
2022-08-03T15:31:26.816Z,99360.34
2022-08-03T15:33:54.515Z,99360.72
2022-08-03T15:36:21.362Z,99372.59
2022-08-03T15:38:48.592Z,99366.25
2022-08-03T15:41:21.455Z,99367.09
2022-08-03T15:43:48.529Z,99364.63
2022-08-03T15:46:31.275Z,99370.69
2022-08-03T15:49:01.204Z,99371.97
2022-08-03T15:51:28.101Z,99377.16
2022-08-03T15:53:56.087Z,99377.03
2022-08-03T15:56:23.500Z,99369.31
2022-08-03T15:59:04.957Z,99368.16
2022-08-03T16:01:43.620Z,99371.72
2022-08-03T16:04:10.572Z,99369.59
2022-08-03T16:06:37.536Z,99369.31
2022-08-03T16:09:24.373Z,99376.28
2022-08-03T16:11:53.275Z,99369.53
2022-08-03T16:14:34.678Z,99365.63
2022-08-03T16:17:07.036Z,99363.28
2022-08-03T16:19:34.039Z,99371.22
2022-08-03T16:22:03.234Z,99363.31
2022-08-03T16:24:30.451Z,99360.34
2022-08-03T16:26:57.644Z,99367.47
2022-08-03T16:29:27.496Z,99365.13
2022-08-03T16:31:54.367Z,99365.63
2022-08-03T16:34:21.423Z,99372.47
2022-08-03T16:36:48.300Z,99364.13
2022-08-03T16:39:17.721Z,99368.53
2022-08-03T16:41:53.957Z,99375.00
2022-08-03T16:44:28.838Z,99366.28
2022-08-03T16:46:59.621Z,99376.69
2022-08-03T16:49:54.686Z,99372.63
2022-08-03T16:52:13.563Z,99386.22
2022-08-03T16:54:43.605Z,99378.75
2022-08-03T16:57:29.721Z,99375.50
2022-08-03T17:00:04.836Z,99375.72
2022-08-03T17:02:33.785Z,99384.56
2022-08-03T17:05:03.882Z,99383.88
2022-08-03T17:07:30.807Z,99391.78
2022-08-03T17:09:57.664Z,99396.25
2022-08-03T17:12:26.882Z,99397.84
2022-08-03T17:14:54.390Z,99400.56
2022-08-03T17:17:22.054Z,99394.63
2022-08-03T17:19:55.296Z,99402.88
2022-08-03T17:22:23.520Z,99407.84
2022-08-03T17:24:51.314Z,99407.72
2022-08-03T17:28:48.532Z,99412.81
2022-08-03T17:30:13.482Z,99418.47
2022-08-03T17:32:42.242Z,99420.31
2022-08-03T17:35:10.517Z,99429.31
2022-08-03T17:37:58.598Z,99422.22
2022-08-03T17:40:25.687Z,99425.81
2022-08-03T17:42:52.894Z,99428.44
2022-08-03T17:45:20.673Z,99427.31
2022-08-03T17:47:57.383Z,99428.78
2022-08-03T17:50:44.501Z,99430.41
2022-08-03T17:53:14.459Z,99432.34
2022-08-03T17:55:58.244Z,99431.06
2022-08-03T17:58:41.514Z,99423.91
2022-08-03T18:02:03.231Z,99442.78
2022-08-03T18:04:14.660Z,99431.91
2022-08-03T18:06:56.112Z,99438.25
2022-08-03T18:10:04.288Z,99439.34
2022-08-03T18:12:14.533Z,99441.94
2022-08-03T18:14:57.327Z,99448.91
2022-08-03T18:17:57.783Z,99462.41
2022-08-03T18:20:34.731Z,99458.84
2022-08-03T18:23:05.812Z,99461.94
2022-08-03T18:25:45.239Z,99467.81
2022-08-03T18:28:16.529Z,99470.88
2022-08-03T18:30:54.536Z,99468.78
2022-08-03T18:34:16.272Z,99464.59
2022-08-03T18:36:22.124Z,99470.59
2022-08-03T18:38:58.599Z,99479.22
2022-08-03T18:41:32.384Z,99483.09
2022-08-03T18:44:07.963Z,99488.78
2022-08-03T18:46:52.435Z,99483.44
2022-08-03T18:49:24.412Z,99493.50
2022-08-03T18:52:16.829Z,99479.69
2022-08-03T18:55:02.482Z,99491.88
2022-08-03T18:57:40.600Z,99491.41
2022-08-03T19:00:24.326Z,99497.56
2022-08-03T19:02:54.932Z,99491.56
2022-08-03T19:05:24.220Z,99495.94
2022-08-03T19:08:15.968Z,99491.06
2022-08-03T19:10:57.936Z,99492.34
2022-08-03T19:13:36.020Z,99495.09
2022-08-03T19:16:04.236Z,99498.19
2022-08-03T19:18:35.840Z,99496.41
2022-08-03T19:21:15.726Z,99498.66
2022-08-03T19:23:45.187Z,99502.53
2022-08-03T19:26:30.643Z,99498.97
2022-08-03T19:28:58.680Z,99501.25
2022-08-03T19:31:30.751Z,99498.47
2022-08-03T19:33:58.898Z,99502.06
2022-08-03T19:39:09.000Z,99496.50
2022-08-03T19:41:41.903Z,99502.97
2022-08-03T19:44:19.935Z,99498.53
2022-08-03T19:46:56.270Z,99498.81
2022-08-03T19:49:57.764Z,99492.59
2022-08-03T19:52:13.389Z,99488.50
2022-08-03T19:54:54.068Z,99492.66
2022-08-03T19:57:23.535Z,99486.16
2022-08-03T19:59:53.257Z,99502.81
2022-08-03T20:02:27.212Z,99498.66
2022-08-03T20:04:59.802Z,99499.72
2022-08-03T20:07:28.142Z,99499.56
2022-08-03T20:09:57.198Z,99495.94
2022-08-03T20:12:26.643Z,99500.88
2022-08-03T20:14:56.664Z,99507.44
2022-08-03T20:17:54.631Z,99507.03
2022-08-03T20:20:10.530Z,99514.44
2022-08-03T20:22:39.182Z,99514.03
2022-08-03T20:25:07.373Z,99515.25
2022-08-03T20:28:07.422Z,99519.72
2022-08-03T20:30:33.891Z,99530.84
2022-08-03T20:33:00.792Z,99519.63
2022-08-03T20:35:28.914Z,99532.50
2022-08-03T20:37:56.335Z,99529.53
2022-08-03T20:40:29.210Z,99527.81
2022-08-03T20:42:58.273Z,99538.00
2022-08-03T20:46:00.770Z,99538.72
2022-08-03T20:48:12.528Z,99543.19
2022-08-03T20:50:43.354Z,99538.22
2022-08-03T20:53:10.537Z,99542.47
2022-08-03T20:55:47.472Z,99548.38
2022-08-03T20:58:26.393Z,99545.44
2022-08-03T21:00:54.283Z,99543.69
2022-08-03T21:03:21.535Z,99548.47
2022-08-03T21:05:51.705Z,99552.63
2022-08-03T21:08:23.562Z,99558.19
2022-08-03T21:10:50.410Z,99546.78
2022-08-03T21:16:06.563Z,99559.88
2022-08-03T21:18:59.066Z,99559.69
2022-08-03T21:21:26.537Z,99563.00
2022-08-03T21:23:54.431Z,99559.97
2022-08-03T21:26:22.873Z,99560.75
2022-08-03T21:28:50.420Z,99560.91
2022-08-03T21:31:24.750Z,99551.38
2022-08-03T21:33:54.597Z,99550.31
2022-08-03T21:36:21.619Z,99554.34
2022-08-03T21:38:56.160Z,99551.25
2022-08-03T21:41:24.900Z,99560.41
2022-08-03T21:43:51.779Z,99558.63
2022-08-03T21:46:19.044Z,99562.78
2022-08-03T21:48:47.177Z,99557.16
2022-08-03T21:51:17.470Z,99556.16
2022-08-03T21:54:00.432Z,99564.75
2022-08-03T21:56:41.382Z,99563.19
2022-08-03T21:59:10.163Z,99565.72
2022-08-03T22:01:39.657Z,99566.88
2022-08-03T22:04:07.048Z,99559.78
2022-08-03T22:06:35.167Z,99560.31
2022-08-03T22:09:03.801Z,99563.59
2022-08-03T22:11:30.747Z,99569.72
2022-08-03T22:13:57.704Z,99563.03
2022-08-03T22:16:27.327Z,99568.84
2022-08-03T22:18:54.114Z,99572.44
2022-08-03T22:21:27.723Z,99566.25
2022-08-03T22:24:02.978Z,99567.09
2022-08-03T22:26:34.661Z,99564.16
2022-08-03T22:29:02.151Z,99570.75
2022-08-03T22:31:57.123Z,99570.44
2022-08-03T22:34:16.033Z,99570.78
2022-08-03T22:36:42.930Z,99580.94
2022-08-03T22:39:09.976Z,99573.09
2022-08-03T22:41:36.924Z,99579.66
2022-08-03T22:44:04.579Z,99579.06
2022-08-03T22:46:31.711Z,99580.41
2022-08-03T22:48:58.639Z,99573.28
2022-08-03T22:51:26.338Z,99573.31
2022-08-03T22:53:53.225Z,99581.88
2022-08-03T22:56:20.084Z,99590.69
2022-08-03T22:58:47.075Z,99587.50
2022-08-03T23:01:13.879Z,99585.88
2022-08-03T23:04:00.805Z,99586.97
2022-08-03T23:06:32.231Z,99590.78
2022-08-03T23:09:09.428Z,99588.56
2022-08-03T23:11:38.120Z,99593.25
2022-08-03T23:14:11.818Z,99590.81
2022-08-03T23:16:39.540Z,99589.19
2022-08-03T23:19:17.240Z,99591.41
2022-08-03T23:22:02.538Z,99589.50
2022-08-03T23:24:32.976Z,99593.06
2022-08-03T23:27:00.773Z,99598.53
2022-08-03T23:29:30.643Z,99590.91
2022-08-03T23:31:57.847Z,99592.59
2022-08-03T23:34:43.137Z,99595.91
2022-08-03T23:37:16.015Z,99595.69
2022-08-03T23:39:47.253Z,99601.75
2022-08-03T23:42:18.340Z,99601.78
2022-08-03T23:44:45.562Z,99601.78
2022-08-03T23:47:16.792Z,99603.41
2022-08-03T23:49:43.678Z,99605.63
2022-08-03T23:52:21.821Z,99605.09
2022-08-03T23:54:53.797Z,99612.25
2022-08-03T23:57:30.009Z,99609.78
